createdAt,value
2019-02-09T00:01:01.872Z,6.60
2019-02-09T00:03:29.381Z,5.87
2019-02-09T00:05:56.859Z,6.87
2019-02-09T00:08:24.219Z,6.27
2019-02-09T00:10:51.610Z,7.20
2019-02-09T00:13:19.734Z,7.20
2019-02-09T00:15:47.232Z,8.03
2019-02-09T00:18:14.684Z,7.70
2019-02-09T00:20:42.089Z,8.13
2019-02-09T00:23:09.543Z,8.40
2019-02-09T00:25:36.975Z,8.03
2019-02-09T00:28:05.484Z,8.70
2019-02-09T00:30:32.849Z,8.17
2019-02-09T00:33:00.283Z,7.93
2019-02-09T00:35:27.735Z,9.60
2019-02-09T00:37:55.119Z,8.90
2019-02-09T00:40:22.655Z,9.53
2019-02-09T00:42:50.057Z,9.03
2019-02-09T00:45:17.989Z,8.07
2019-02-09T00:47:45.362Z,9.17
2019-02-09T00:50:12.873Z,6.10
2019-02-09T00:52:40.321Z,8.80
2019-02-09T00:55:08.547Z,7.83
2019-02-09T00:57:35.895Z,8.60
2019-02-09T01:00:09.663Z,9.40
2019-02-09T01:02:37.012Z,6.33
2019-02-09T01:05:05.154Z,7.90
2019-02-09T01:07:32.565Z,8.67
2019-02-09T01:09:59.935Z,8.80
2019-02-09T01:12:27.577Z,7.87
2019-02-09T01:14:54.959Z,7.83
2019-02-09T01:17:22.316Z,7.47
2019-02-09T01:19:49.683Z,8.57
2019-02-09T01:22:17.053Z,8.20
2019-02-09T01:24:44.449Z,8.17
2019-02-09T01:27:11.781Z,8.23
2019-02-09T01:29:39.279Z,8.63
2019-02-09T01:32:06.641Z,7.17
2019-02-09T01:34:34.016Z,8.63
2019-02-09T01:37:01.351Z,8.60
2019-02-09T01:39:28.823Z,8.80
2019-02-09T01:41:56.235Z,7.97
2019-02-09T01:44:23.558Z,7.77
2019-02-09T01:46:50.933Z,8.10
2019-02-09T01:49:18.390Z,8.30
2019-02-09T01:51:45.772Z,7.93
2019-02-09T01:54:13.216Z,8.70
2019-02-09T01:56:40.715Z,8.57
2019-02-09T01:59:08.086Z,8.07
2019-02-09T02:01:36.341Z,8.20
2019-02-09T02:04:03.699Z,8.27
2019-02-09T02:06:31.019Z,7.77
2019-02-09T02:08:58.465Z,8.40
2019-02-09T02:11:25.961Z,7.93
2019-02-09T02:13:53.435Z,8.10
2019-02-09T02:16:20.918Z,8.10
2019-02-09T02:18:48.414Z,8.77
2019-02-09T02:21:15.806Z,8.00
2019-02-09T02:23:43.167Z,8.43
2019-02-09T02:26:10.658Z,6.90
2019-02-09T02:28:38.078Z,7.37
2019-02-09T02:31:05.399Z,8.53
2019-02-09T02:33:32.837Z,8.10
2019-02-09T02:36:00.230Z,8.67
2019-02-09T02:38:27.674Z,6.63
2019-02-09T02:40:55.073Z,8.10
2019-02-09T02:43:22.418Z,9.07
2019-02-09T02:45:49.794Z,7.30
2019-02-09T02:48:18.116Z,8.37
2019-02-09T02:50:46.257Z,9.10
2019-02-09T02:53:13.728Z,8.53
2019-02-09T02:55:41.080Z,8.43
2019-02-09T02:58:08.473Z,8.33
2019-02-09T03:00:35.944Z,9.13
2019-02-09T03:03:03.463Z,8.60
2019-02-09T03:05:31.266Z,8.43
2019-02-09T03:07:58.738Z,7.93
2019-02-09T03:10:26.580Z,7.87
2019-02-09T03:12:53.960Z,7.90
2019-02-09T03:15:23.459Z,8.03
2019-02-09T03:17:50.831Z,8.73
2019-02-09T03:20:18.982Z,8.53
2019-02-09T03:22:46.821Z,8.57
2019-02-09T03:25:19.328Z,8.60
2019-02-09T03:27:46.842Z,8.80
2019-02-09T03:30:15.114Z,7.77
2019-02-09T03:32:42.503Z,8.10
2019-02-09T03:35:10.191Z,7.30
2019-02-09T03:37:37.589Z,7.27
2019-02-09T03:40:06.957Z,7.63
2019-02-09T03:42:34.294Z,6.93
2019-02-09T03:45:01.826Z,6.43
2019-02-09T03:47:29.320Z,6.70
2019-02-09T03:49:56.696Z,6.60
2019-02-09T03:52:24.212Z,5.90
2019-02-09T03:54:51.707Z,6.63
2019-02-09T03:57:19.183Z,5.97
2019-02-09T03:59:46.661Z,5.80
2019-02-09T04:02:14.141Z,5.83
2019-02-09T04:04:41.534Z,6.00
2019-02-09T04:07:08.928Z,6.30
2019-02-09T04:09:36.298Z,6.10
2019-02-09T04:12:04.309Z,6.03
2019-02-09T04:14:31.761Z,5.53
2019-02-09T04:16:59.147Z,6.00
2019-02-09T04:19:26.522Z,6.07
2019-02-09T04:21:54.084Z,5.50
2019-02-09T04:24:21.474Z,5.43
2019-02-09T04:26:48.889Z,5.57
2019-02-09T04:29:16.226Z,6.37
2019-02-09T04:31:43.577Z,6.07
2019-02-09T04:34:11.395Z,6.30
2019-02-09T04:36:38.755Z,4.53
2019-02-09T04:39:06.343Z,5.17
2019-02-09T04:41:33.578Z,5.10
2019-02-09T04:44:01.047Z,5.30
2019-02-09T04:46:28.509Z,5.27
2019-02-09T04:48:56.002Z,4.40
2019-02-09T04:51:23.387Z,5.10
2019-02-09T04:53:50.856Z,5.03
2019-02-09T04:56:18.303Z,4.73
2019-02-09T04:58:45.797Z,3.73
2019-02-09T05:01:14.251Z,4.70
2019-02-09T05:03:41.932Z,5.07
2019-02-09T05:06:09.573Z,4.70
2019-02-09T05:08:36.949Z,4.50
2019-02-09T05:11:04.458Z,4.20
2019-02-09T05:13:31.793Z,4.10
2019-02-09T05:15:59.306Z,4.13
2019-02-09T05:18:27.081Z,4.00
2019-02-09T05:20:54.440Z,4.20
2019-02-09T05:23:21.853Z,3.67
2019-02-09T05:25:49.217Z,3.47
2019-02-09T05:28:16.492Z,3.80
2019-02-09T05:30:43.962Z,3.63
2019-02-09T05:33:11.380Z,3.00
2019-02-09T05:35:38.758Z,3.70
2019-02-09T05:38:06.116Z,3.20
2019-02-09T05:40:33.864Z,3.13
2019-02-09T05:43:01.220Z,2.60
2019-02-09T05:45:28.783Z,2.67
2019-02-09T05:47:56.136Z,2.60
2019-02-09T05:50:23.487Z,2.72
2019-02-09T05:52:50.831Z,2.93
2019-02-09T05:55:18.521Z,2.27
2019-02-09T05:57:45.847Z,2.07
2019-02-09T06:00:21.444Z,2.27
2019-02-09T06:02:48.917Z,2.07
2019-02-09T06:05:16.234Z,2.03
2019-02-09T06:07:43.581Z,1.90
2019-02-09T06:10:12.770Z,2.30
2019-02-09T06:12:40.108Z,1.90
2019-02-09T06:15:08.775Z,1.67
2019-02-09T06:17:36.252Z,1.90
2019-02-09T06:20:04.842Z,2.27
2019-02-09T06:22:32.309Z,2.20
2019-02-09T06:24:59.824Z,2.27
2019-02-09T06:27:27.152Z,2.17
2019-02-09T06:29:54.411Z,2.07
2019-02-09T06:32:22.132Z,2.30
2019-02-09T06:34:49.588Z,2.07
2019-02-09T06:37:16.917Z,2.10
2019-02-09T06:39:44.271Z,2.00
2019-02-09T06:42:11.634Z,1.83
2019-02-09T06:44:39.085Z,2.03
2019-02-09T06:47:06.442Z,2.00
2019-02-09T06:49:33.921Z,1.80
2019-02-09T06:52:01.252Z,1.60
2019-02-09T06:54:28.771Z,1.93
2019-02-09T06:56:56.253Z,1.70
2019-02-09T06:59:23.612Z,1.47
2019-02-09T07:01:50.907Z,2.00
2019-02-09T07:04:18.367Z,2.17
2019-02-09T07:06:45.803Z,2.10
2019-02-09T07:09:13.243Z,2.00
2019-02-09T07:11:40.884Z,1.87
2019-02-09T07:14:08.384Z,2.17
2019-02-09T07:16:36.183Z,2.00
2019-02-09T07:19:03.869Z,1.90
2019-02-09T07:21:31.322Z,1.83
2019-02-09T07:23:59.052Z,2.00
2019-02-09T07:26:26.516Z,1.90
2019-02-09T07:28:54.031Z,2.57
2019-02-09T07:31:21.431Z,2.10
2019-02-09T07:33:48.788Z,1.97
2019-02-09T07:36:16.162Z,2.10
2019-02-09T07:38:43.951Z,2.00
2019-02-09T07:41:11.617Z,1.93
2019-02-09T07:43:38.993Z,1.80
2019-02-09T07:46:06.674Z,1.87
2019-02-09T07:48:34.052Z,1.80
2019-02-09T07:51:01.364Z,2.07
2019-02-09T07:53:28.632Z,2.10
2019-02-09T07:55:56.131Z,2.10
2019-02-09T07:58:23.752Z,2.20
2019-02-09T08:00:51.199Z,2.20
2019-02-09T08:03:18.853Z,2.20
2019-02-09T08:05:46.518Z,1.90
2019-02-09T08:08:14.031Z,2.07
2019-02-09T08:10:41.375Z,1.77
2019-02-09T08:13:08.832Z,1.30
2019-02-09T08:15:36.418Z,1.60
2019-02-09T08:18:04.350Z,1.53
2019-02-09T08:20:31.819Z,1.50
2019-02-09T08:23:00.296Z,1.60
2019-02-09T08:25:29.339Z,1.50
2019-02-09T08:27:57.312Z,1.50
2019-02-09T08:30:27.388Z,1.47
2019-02-09T08:32:55.046Z,1.30
2019-02-09T08:35:22.553Z,1.50
2019-02-09T08:37:49.932Z,1.40
2019-02-09T08:40:17.288Z,1.50
2019-02-09T08:42:44.622Z,1.40
2019-02-09T08:45:14.717Z,1.50
2019-02-09T08:47:42.087Z,1.40
2019-02-09T08:50:13.562Z,1.43
2019-02-09T08:52:40.901Z,1.37
2019-02-09T08:55:08.175Z,1.40
2019-02-09T08:57:35.562Z,1.67
2019-02-09T09:00:06.440Z,1.40
2019-02-09T09:02:33.813Z,1.30
2019-02-09T09:05:09.375Z,1.67
2019-02-09T09:07:30.520Z,1.60
2019-02-09T09:09:57.864Z,1.80
2019-02-09T09:12:25.238Z,2.00
2019-02-09T09:14:53.188Z,2.10
2019-02-09T09:17:20.681Z,2.17
2019-02-09T09:19:48.048Z,2.50
2019-02-09T09:22:15.379Z,2.60
2019-02-09T09:24:42.968Z,3.00
2019-02-09T09:27:10.476Z,4.20
2019-02-09T09:29:37.799Z,4.40
2019-02-09T09:32:05.165Z,4.97
2019-02-09T09:34:32.571Z,5.60
2019-02-09T09:36:59.964Z,6.70
2019-02-09T09:39:27.329Z,8.17
2019-02-09T09:41:54.621Z,7.70
2019-02-09T09:44:22.117Z,7.57
2019-02-09T09:46:49.604Z,9.07
2019-02-09T09:49:16.965Z,10.27
2019-02-09T09:51:44.289Z,9.60
2019-02-09T09:54:11.775Z,9.73
2019-02-09T09:56:39.018Z,9.90
2019-02-09T09:59:06.386Z,10.77
2019-02-09T10:01:33.725Z,10.73
2019-02-09T10:04:01.068Z,10.87
2019-02-09T10:06:28.461Z,11.83
2019-02-09T10:08:55.937Z,11.07
2019-02-09T10:11:23.297Z,11.73
2019-02-09T10:13:50.676Z,11.93
2019-02-09T10:16:18.150Z,11.30
2019-02-09T10:18:45.600Z,10.40
2019-02-09T10:21:12.959Z,11.60
2019-02-09T10:23:40.451Z,8.80
2019-02-09T10:26:07.836Z,11.67
2019-02-09T10:28:35.206Z,10.97
2019-02-09T10:31:02.650Z,11.43
2019-02-09T10:33:30.137Z,10.33
2019-02-09T10:35:57.485Z,10.37
2019-02-09T10:38:24.819Z,10.67
2019-02-09T10:40:52.140Z,10.03
2019-02-09T10:43:19.508Z,10.33
2019-02-09T10:45:46.921Z,9.80
2019-02-09T10:48:15.087Z,9.23
2019-02-09T10:50:44.325Z,9.33
2019-02-09T10:53:11.662Z,9.60
2019-02-09T10:55:39.119Z,9.00
2019-02-09T10:58:07.254Z,7.97
2019-02-09T11:01:01.573Z,8.53
2019-02-09T11:03:29.038Z,8.07
2019-02-09T11:05:56.395Z,7.67
2019-02-09T11:08:23.869Z,7.67
2019-02-09T11:10:51.247Z,7.47
2019-02-09T11:13:18.621Z,8.00
2019-02-09T11:16:05.498Z,7.80
2019-02-09T11:18:32.982Z,7.17
2019-02-09T11:21:00.434Z,7.43
2019-02-09T11:23:27.967Z,6.00
2019-02-09T11:25:55.333Z,5.93
2019-02-09T11:28:22.873Z,5.40
2019-02-09T11:30:50.277Z,6.00
2019-02-09T11:33:17.743Z,5.40
2019-02-09T11:35:45.088Z,4.90
2019-02-09T11:38:12.579Z,5.53
2019-02-09T11:43:14.416Z,5.20
2019-02-09T11:45:41.781Z,5.40
2019-02-09T11:48:09.138Z,5.27
2019-02-09T11:50:36.436Z,4.80
2019-02-09T11:53:04.734Z,5.20
2019-02-09T11:55:32.102Z,5.67
2019-02-09T11:57:59.577Z,5.77
2019-02-09T12:00:35.194Z,6.07
2019-02-09T12:03:12.900Z,6.90
2019-02-09T12:05:32.679Z,5.57
2019-02-09T12:08:00.013Z,6.37
2019-02-09T12:10:27.616Z,5.70
2019-02-09T12:12:54.967Z,3.70
2019-02-09T12:15:27.468Z,4.90
2019-02-09T12:17:54.804Z,4.60
2019-02-09T12:20:22.757Z,4.83
2019-02-09T12:22:50.209Z,4.67
2019-02-09T12:25:19.768Z,4.90
2019-02-09T12:27:47.277Z,4.73
2019-02-09T12:30:17.661Z,4.70
2019-02-09T12:32:45.067Z,4.73
2019-02-09T12:35:12.549Z,4.67
2019-02-09T12:37:39.894Z,4.60
2019-02-09T12:40:09.754Z,2.10
2019-02-09T12:42:37.125Z,1.33
2019-02-09T12:45:06.028Z,1.47
2019-02-09T12:47:33.483Z,1.93
2019-02-09T12:50:00.927Z,1.77
2019-02-09T12:52:28.299Z,1.60
2019-02-09T12:54:55.679Z,1.50
2019-02-09T12:57:23.151Z,1.80
2019-02-09T12:59:50.523Z,1.50
2019-02-09T13:02:18.051Z,1.90
2019-02-09T13:04:45.388Z,2.10
2019-02-09T13:07:12.947Z,2.00
2019-02-09T13:09:40.434Z,1.93
2019-02-09T13:12:07.809Z,1.60
2019-02-09T13:14:35.097Z,1.80
2019-02-09T13:17:02.563Z,2.10
2019-02-09T13:19:29.812Z,1.60
2019-02-09T13:21:57.165Z,1.63
2019-02-09T13:24:24.616Z,1.80
2019-02-09T13:26:52.006Z,1.70
2019-02-09T13:29:19.441Z,1.67
2019-02-09T13:31:46.914Z,1.93
2019-02-09T13:34:14.271Z,2.13
2019-02-09T13:36:41.858Z,2.00
2019-02-09T13:39:09.355Z,2.50
2019-02-09T13:41:36.727Z,2.83
2019-02-09T13:44:04.279Z,3.00
2019-02-09T13:46:31.662Z,3.70
2019-02-09T13:48:59.038Z,3.17
2019-02-09T13:51:26.421Z,2.90
2019-02-09T13:53:53.889Z,2.40
2019-02-09T13:56:21.246Z,2.73
2019-02-09T13:58:50.062Z,2.60
2019-02-09T14:01:17.489Z,2.67
2019-02-09T14:03:51.089Z,2.50
2019-02-09T14:06:19.764Z,2.10
2019-02-09T14:08:49.511Z,2.50
2019-02-09T14:11:21.379Z,2.80
2019-02-09T14:13:48.613Z,2.63
2019-02-09T14:16:38.792Z,2.63
2019-02-09T14:19:04.652Z,2.50
2019-02-09T14:21:32.256Z,2.80
2019-02-09T14:23:59.604Z,2.37
2019-02-09T14:26:26.834Z,2.43
2019-02-09T14:28:54.167Z,2.43
2019-02-09T14:31:21.507Z,2.30
2019-02-09T14:33:54.858Z,2.57
2019-02-09T14:36:18.068Z,2.20
2019-02-09T14:38:45.395Z,2.57
2019-02-09T14:41:12.722Z,2.43
2019-02-09T14:43:40.061Z,2.40
2019-02-09T14:46:07.523Z,2.13
2019-02-09T14:48:34.812Z,2.23
2019-02-09T14:51:02.173Z,2.17
2019-02-09T14:53:29.512Z,2.53
2019-02-09T14:55:56.872Z,2.93
2019-02-09T14:58:24.220Z,2.70
2019-02-09T15:00:52.369Z,2.30
2019-02-09T15:03:25.963Z,3.00
2019-02-09T15:05:48.787Z,3.30
2019-02-09T15:08:16.091Z,2.43
2019-02-09T15:10:43.321Z,2.57
2019-02-09T15:13:12.176Z,2.30
2019-02-09T15:15:52.309Z,2.80
2019-02-09T15:18:19.661Z,2.50
2019-02-09T15:20:50.629Z,3.37
2019-02-09T15:23:17.923Z,3.10
2019-02-09T15:25:45.203Z,3.07
2019-02-09T15:28:12.865Z,3.00
2019-02-09T15:30:40.384Z,2.20
2019-02-09T15:33:07.806Z,2.63
2019-02-09T15:35:35.135Z,2.90
2019-02-09T15:38:02.689Z,2.97
2019-02-09T15:40:30.024Z,2.50
2019-02-09T15:42:57.382Z,2.77
2019-02-09T15:45:24.599Z,2.63
2019-02-09T15:47:52.126Z,2.60
2019-02-09T15:50:19.464Z,3.07
2019-02-09T15:52:46.925Z,2.80
2019-02-09T15:55:15.731Z,2.70
2019-02-09T15:57:43.104Z,3.00
2019-02-09T16:00:14.005Z,3.27
2019-02-09T16:02:41.303Z,3.17
2019-02-09T16:05:09.885Z,3.20
2019-02-09T16:07:37.324Z,3.37
2019-02-09T16:10:24.272Z,3.00
2019-02-09T16:12:51.777Z,2.90
2019-02-09T16:15:21.359Z,2.70
2019-02-09T16:17:48.888Z,2.80
2019-02-09T16:20:18.176Z,2.80
2019-02-09T16:22:45.603Z,2.67
2019-02-09T16:25:12.963Z,3.00
2019-02-09T16:27:40.199Z,2.50
2019-02-09T16:30:09.424Z,2.50
2019-02-09T16:32:36.903Z,2.47
2019-02-09T16:35:07.011Z,2.60
2019-02-09T16:37:34.313Z,2.70
2019-02-09T16:40:01.701Z,2.40
2019-02-09T16:42:29.014Z,2.60
2019-02-09T16:44:56.274Z,2.37
2019-02-09T16:47:23.575Z,2.67
2019-02-09T16:49:50.796Z,2.80
2019-02-09T16:52:18.142Z,3.13
2019-02-09T16:54:45.426Z,2.90
2019-02-09T16:57:12.669Z,3.30
2019-02-09T16:59:40.003Z,3.37
2019-02-09T17:02:07.527Z,3.30
2019-02-09T17:04:34.778Z,3.03
2019-02-09T17:07:02.080Z,2.87
2019-02-09T17:09:29.321Z,2.90
2019-02-09T17:11:56.560Z,2.83
2019-02-09T17:14:23.990Z,2.60
2019-02-09T17:16:51.223Z,2.57
2019-02-09T17:19:18.512Z,3.03
2019-02-09T17:21:45.862Z,2.60
2019-02-09T17:24:13.100Z,2.33
2019-02-09T17:26:40.321Z,2.70
2019-02-09T17:29:07.712Z,2.87
2019-02-09T17:31:34.992Z,3.10
2019-02-09T17:34:02.295Z,2.90
2019-02-09T17:36:29.544Z,2.20
2019-02-09T17:38:56.843Z,1.93
2019-02-09T17:41:24.204Z,2.47
2019-02-09T17:43:51.545Z,2.27
2019-02-09T17:46:18.876Z,2.13
2019-02-09T17:48:46.201Z,2.03
2019-02-09T17:51:13.536Z,2.20
2019-02-09T17:53:40.730Z,2.20
2019-02-09T17:56:08.116Z,2.10
2019-02-09T17:58:35.480Z,2.40
2019-02-09T18:01:05.686Z,2.27
2019-02-09T18:03:32.991Z,2.30
2019-02-09T18:06:00.194Z,2.10
2019-02-09T18:08:27.439Z,1.87
2019-02-09T18:10:54.679Z,2.00
2019-02-09T18:13:21.909Z,1.77
2019-02-09T18:15:49.243Z,2.10
2019-02-09T18:18:16.479Z,1.90
2019-02-09T18:20:43.828Z,2.03
2019-02-09T18:23:11.135Z,2.10
2019-02-09T18:25:38.465Z,1.50
2019-02-09T18:28:05.869Z,1.23
2019-02-09T18:30:33.129Z,1.40
2019-02-09T18:33:00.452Z,1.40
2019-02-09T18:35:27.801Z,1.23
2019-02-09T18:37:55.136Z,1.47
2019-02-09T18:40:22.519Z,1.67
2019-02-09T18:42:49.748Z,1.67
2019-02-09T18:45:19.904Z,1.70
2019-02-09T18:47:47.172Z,1.63
2019-02-09T18:50:16.307Z,1.77
2019-02-09T18:52:43.788Z,1.70
2019-02-09T18:55:13.989Z,1.50
2019-02-09T18:57:41.376Z,1.90
2019-02-09T19:00:10.327Z,2.20
2019-02-09T19:02:38.638Z,2.53
2019-02-09T19:05:07.019Z,2.80
2019-02-09T19:07:34.369Z,2.90
2019-02-09T19:10:01.738Z,3.53
2019-02-09T19:12:29.064Z,3.20
2019-02-09T19:14:56.430Z,3.40
2019-02-09T19:17:23.679Z,2.90
2019-02-09T19:19:50.965Z,3.20
2019-02-09T19:22:20.468Z,3.70
2019-02-09T19:24:47.531Z,3.37
2019-02-09T19:27:14.744Z,2.70
2019-02-09T19:29:42.074Z,4.63
2019-02-09T19:32:09.860Z,2.50
2019-02-09T19:34:37.171Z,3.13
2019-02-09T19:37:04.527Z,3.07
2019-02-09T19:39:31.857Z,3.57
2019-02-09T19:41:59.165Z,3.67
2019-02-09T19:44:26.597Z,4.13
2019-02-09T19:46:53.890Z,3.80
2019-02-09T19:49:21.157Z,3.60
2019-02-09T19:51:48.475Z,3.27
2019-02-09T19:54:15.767Z,3.13
2019-02-09T19:56:43.199Z,2.83
2019-02-09T19:59:10.459Z,3.67
2019-02-09T20:01:37.762Z,3.90
2019-02-09T20:04:05.004Z,3.10
2019-02-09T20:06:32.336Z,3.83
2019-02-09T20:08:59.548Z,3.50
2019-02-09T20:11:26.871Z,2.63
2019-02-09T20:13:54.209Z,3.00
2019-02-09T20:16:21.536Z,2.97
2019-02-09T20:18:48.828Z,2.63
2019-02-09T20:21:16.259Z,2.73
2019-02-09T20:23:43.551Z,2.93
2019-02-09T20:26:10.896Z,3.13
2019-02-09T20:28:38.215Z,3.23
2019-02-09T20:31:05.618Z,3.27
2019-02-09T20:33:32.845Z,3.93
2019-02-09T20:36:00.135Z,3.37
2019-02-09T20:38:27.503Z,3.50
2019-02-09T20:40:59.414Z,4.33
2019-02-09T20:43:26.717Z,4.20
2019-02-09T20:45:54.060Z,3.87
2019-02-09T20:48:21.395Z,3.77
2019-02-09T20:50:48.724Z,4.10
2019-02-09T20:53:15.986Z,4.03
2019-02-09T20:55:43.287Z,4.27
2019-02-09T20:58:11.626Z,3.90
2019-02-09T21:00:39.052Z,4.60
2019-02-09T21:03:06.403Z,3.53
2019-02-09T21:05:36.580Z,4.17
2019-02-09T21:08:03.192Z,3.83
2019-02-09T21:10:30.739Z,3.93
2019-02-09T21:12:58.092Z,3.93
2019-02-09T21:15:26.245Z,4.03
2019-02-09T21:17:53.712Z,4.00
2019-02-09T21:20:21.056Z,4.37
2019-02-09T21:22:48.475Z,4.27
2019-02-09T21:25:17.932Z,4.07
2019-02-09T21:27:45.238Z,4.77
2019-02-09T21:30:14.671Z,3.93
2019-02-09T21:32:41.967Z,4.60
2019-02-09T21:35:09.519Z,4.00
2019-02-09T21:37:36.772Z,4.93
2019-02-09T21:40:05.760Z,4.00
2019-02-09T21:42:33.059Z,4.73
2019-02-09T21:45:00.380Z,4.37
2019-02-09T21:47:27.682Z,4.50
2019-02-09T21:49:55.025Z,3.70
2019-02-09T21:52:22.372Z,3.77
2019-02-09T21:54:49.791Z,5.03
2019-02-09T21:57:17.112Z,4.20
2019-02-09T21:59:44.324Z,4.30
2019-02-09T22:02:11.652Z,3.70
2019-02-09T22:04:38.957Z,2.67
2019-02-09T22:07:06.190Z,3.83
2019-02-09T22:09:33.524Z,3.60
2019-02-09T22:12:00.802Z,4.03
2019-02-09T22:14:28.318Z,3.73
2019-02-09T22:16:55.871Z,4.13
2019-02-09T22:19:23.233Z,3.53
2019-02-09T22:21:50.683Z,3.57
2019-02-09T22:24:18.408Z,3.30
2019-02-09T22:26:46.042Z,3.60
2019-02-09T22:29:13.404Z,2.97
2019-02-09T22:31:40.732Z,3.27
2019-02-09T22:34:08.048Z,2.80
2019-02-09T22:36:37.291Z,3.07
2019-02-09T22:39:06.864Z,2.77
2019-02-09T22:41:34.199Z,2.80
2019-02-09T22:44:01.570Z,2.87
2019-02-09T22:46:28.870Z,1.87
2019-02-09T22:48:56.200Z,2.17
2019-02-09T22:51:23.511Z,2.03
2019-02-09T22:53:50.860Z,1.70
2019-02-09T22:56:18.080Z,2.00
2019-02-09T22:58:45.420Z,1.87
2019-02-09T23:01:32.338Z,2.40
2019-02-09T23:04:10.204Z,1.43
2019-02-09T23:06:52.930Z,1.90
2019-02-09T23:09:25.435Z,2.17
2019-02-09T23:11:52.763Z,1.70
2019-02-09T23:14:20.080Z,1.87
2019-02-09T23:16:47.535Z,1.90
2019-02-09T23:19:14.876Z,1.97
2019-02-09T23:21:42.110Z,1.33
2019-02-09T23:24:09.368Z,1.50
2019-02-09T23:26:36.676Z,1.30
2019-02-09T23:29:03.912Z,0.73
2019-02-09T23:31:31.219Z,1.30
2019-02-09T23:33:58.490Z,2.20
2019-02-09T23:36:25.700Z,1.50
2019-02-09T23:38:52.912Z,1.53
2019-02-09T23:41:20.243Z,1.70
2019-02-09T23:43:47.483Z,1.00
2019-02-09T23:46:14.808Z,1.33
2019-02-09T23:48:42.145Z,1.73
2019-02-09T23:51:09.352Z,1.40
2019-02-09T23:53:36.803Z,1.00
2019-02-09T23:56:04.025Z,1.60
2019-02-09T23:58:31.280Z,1.20
